sensor_id;sensor_type;location;lat;lon;timestamp;temperature;humidity
14749;DHT22;7466;53.574;9.976;2022-10-24T00:02:04;14.40;99.90
14749;DHT22;7466;53.574;9.976;2022-10-24T00:04:34;14.40;99.90
14749;DHT22;7466;53.574;9.976;2022-10-24T00:07:02;14.30;99.90
14749;DHT22;7466;53.574;9.976;2022-10-24T00:09:28;14.30;99.90
14749;DHT22;7466;53.574;9.976;2022-10-24T00:11:55;14.30;99.90
14749;DHT22;7466;53.574;9.976;2022-10-24T00:14:22;14.30;99.90
14749;DHT22;7466;53.574;9.976;2022-10-24T00:16:51;14.20;99.90
14749;DHT22;7466;53.574;9.976;2022-10-24T00:19:18;14.20;99.90
14749;DHT22;7466;53.574;9.976;2022-10-24T00:21:45;14.20;99.90
14749;DHT22;7466;53.574;9.976;2022-10-24T00:24:12;14.20;99.90
14749;DHT22;7466;53.574;9.976;2022-10-24T00:26:39;14.20;99.90
14749;DHT22;7466;53.574;9.976;2022-10-24T00:29:06;14.20;99.90
14749;DHT22;7466;53.574;9.976;2022-10-24T00:31:33;14.10;99.90
14749;DHT22;7466;53.574;9.976;2022-10-24T00:34:02;14.20;99.90
14749;DHT22;7466;53.574;9.976;2022-10-24T00:36:29;14.10;99.90
14749;DHT22;7466;53.574;9.976;2022-10-24T00:38:56;14.20;99.90
14749;DHT22;7466;53.574;9.976;2022-10-24T00:41:26;14.20;99.90
14749;DHT22;7466;53.574;9.976;2022-10-24T00:46:55;14.10;99.90
14749;DHT22;7466;53.574;9.976;2022-10-24T00:49:28;14.10;99.90
14749;DHT22;7466;53.574;9.976;2022-10-24T00:51:59;14.10;99.90
14749;DHT22;7466;53.574;9.976;2022-10-24T00:54:28;14.00;99.90
14749;DHT22;7466;53.574;9.976;2022-10-24T00:57:00;14.00;99.90
14749;DHT22;7466;53.574;9.976;2022-10-24T00:59:29;14.00;99.90
14749;DHT22;7466;53.574;9.976;2022-10-24T01:01:56;14.00;99.90
14749;DHT22;7466;53.574;9.976;2022-10-24T01:04:25;13.90;99.90
14749;DHT22;7466;53.574;9.976;2022-10-24T01:07:00;14.00;99.90
14749;DHT22;7466;53.574;9.976;2022-10-24T01:09:39;13.90;99.90
14749;DHT22;7466;53.574;9.976;2022-10-24T01:12:20;13.90;99.90
14749;DHT22;7466;53.574;9.976;2022-10-24T01:14:54;13.80;99.90
14749;DHT22;7466;53.574;9.976;2022-10-24T01:17:30;13.80;99.90
14749;DHT22;7466;53.574;9.976;2022-10-24T01:23:06;13.70;99.90
14749;DHT22;7466;53.574;9.976;2022-10-24T01:25:46;13.70;99.90
14749;DHT22;7466;53.574;9.976;2022-10-24T01:28:18;13.70;99.90
14749;DHT22;7466;53.574;9.976;2022-10-24T01:30:51;13.60;99.90
14749;DHT22;7466;53.574;9.976;2022-10-24T01:33:27;13.60;99.90
14749;DHT22;7466;53.574;9.976;2022-10-24T01:36:00;13.60;99.90
14749;DHT22;7466;53.574;9.976;2022-10-24T01:38:33;13.60;99.90
14749;DHT22;7466;53.574;9.976;2022-10-24T01:41:03;13.60;99.90
14749;DHT22;7466;53.574;9.976;2022-10-24T01:43:34;13.50;99.90
14749;DHT22;7466;53.574;9.976;2022-10-24T01:46:07;13.50;99.90
14749;DHT22;7466;53.574;9.976;2022-10-24T01:48:39;13.40;99.90
14749;DHT22;7466;53.574;9.976;2022-10-24T01:51:08;13.50;99.90
14749;DHT22;7466;53.574;9.976;2022-10-24T01:53:37;13.40;99.90
14749;DHT22;7466;53.574;9.976;2022-10-24T01:56:04;13.40;99.90
14749;DHT22;7466;53.574;9.976;2022-10-24T01:58:32;13.40;99.90
14749;DHT22;7466;53.574;9.976;2022-10-24T02:01:02;13.40;99.90
14749;DHT22;7466;53.574;9.976;2022-10-24T02:03:34;13.40;99.90
14749;DHT22;7466;53.574;9.976;2022-10-24T02:06:07;13.30;99.90
14749;DHT22;7466;53.574;9.976;2022-10-24T02:08:39;13.30;99.90
14749;DHT22;7466;53.574;9.976;2022-10-24T02:11:08;13.20;99.90
14749;DHT22;7466;53.574;9.976;2022-10-24T02:13:39;13.20;99.90
14749;DHT22;7466;53.574;9.976;2022-10-24T02:16:10;13.20;99.90
14749;DHT22;7466;53.574;9.976;2022-10-24T02:18:39;13.20;99.90
14749;DHT22;7466;53.574;9.976;2022-10-24T02:21:13;13.20;99.90
14749;DHT22;7466;53.574;9.976;2022-10-24T02:23:46;13.20;99.90
14749;DHT22;7466;53.574;9.976;2022-10-24T02:26:20;13.20;99.90
14749;DHT22;7466;53.574;9.976;2022-10-24T02:28:51;13.10;99.90
14749;DHT22;7466;53.574;9.976;2022-10-24T02:31:21;13.10;99.90
14749;DHT22;7466;53.574;9.976;2022-10-24T02:33:52;13.10;99.90
14749;DHT22;7466;53.574;9.976;2022-10-24T02:36:23;13.10;99.90
14749;DHT22;7466;53.574;9.976;2022-10-24T02:38:51;13.10;99.90
14749;DHT22;7466;53.574;9.976;2022-10-24T02:41:21;13.20;99.90
14749;DHT22;7466;53.574;9.976;2022-10-24T02:43:51;13.10;99.90
14749;DHT22;7466;53.574;9.976;2022-10-24T02:46:19;13.10;99.90
14749;DHT22;7466;53.574;9.976;2022-10-24T02:48:50;13.20;99.90
14749;DHT22;7466;53.574;9.976;2022-10-24T02:51:20;13.10;99.90
14749;DHT22;7466;53.574;9.976;2022-10-24T02:53:49;13.10;99.90
14749;DHT22;7466;53.574;9.976;2022-10-24T02:56:16;13.10;99.90
14749;DHT22;7466;53.574;9.976;2022-10-24T02:58:43;13.10;99.90
14749;DHT22;7466;53.574;9.976;2022-10-24T03:01:10;13.10;99.90
14749;DHT22;7466;53.574;9.976;2022-10-24T03:03:37;13.00;99.90
14749;DHT22;7466;53.574;9.976;2022-10-24T03:06:06;13.10;99.90
14749;DHT22;7466;53.574;9.976;2022-10-24T03:08:32;13.00;99.90
14749;DHT22;7466;53.574;9.976;2022-10-24T03:10:59;13.00;99.90
14749;DHT22;7466;53.574;9.976;2022-10-24T03:13:26;13.00;99.90
14749;DHT22;7466;53.574;9.976;2022-10-24T03:15:53;13.00;99.90
14749;DHT22;7466;53.574;9.976;2022-10-24T03:18:20;13.00;99.90
14749;DHT22;7466;53.574;9.976;2022-10-24T03:20:47;13.00;99.90
14749;DHT22;7466;53.574;9.976;2022-10-24T03:23:15;12.90;99.90
14749;DHT22;7466;53.574;9.976;2022-10-24T03:25:43;12.90;99.90
14749;DHT22;7466;53.574;9.976;2022-10-24T03:28:10;12.90;99.90
14749;DHT22;7466;53.574;9.976;2022-10-24T03:30:37;12.90;99.90
14749;DHT22;7466;53.574;9.976;2022-10-24T03:33:04;12.90;99.90
14749;DHT22;7466;53.574;9.976;2022-10-24T03:35:31;12.90;99.90
14749;DHT22;7466;53.574;9.976;2022-10-24T03:37:57;12.90;99.90
14749;DHT22;7466;53.574;9.976;2022-10-24T03:40:26;12.90;99.90
14749;DHT22;7466;53.574;9.976;2022-10-24T03:42:52;12.80;99.90
14749;DHT22;7466;53.574;9.976;2022-10-24T03:45:19;12.80;99.90
14749;DHT22;7466;53.574;9.976;2022-10-24T03:47:46;12.80;99.90
14749;DHT22;7466;53.574;9.976;2022-10-24T03:50:13;12.80;99.90
14749;DHT22;7466;53.574;9.976;2022-10-24T03:52:39;12.80;99.90
14749;DHT22;7466;53.574;9.976;2022-10-24T03:55:07;12.80;99.90
14749;DHT22;7466;53.574;9.976;2022-10-24T03:57:35;12.80;99.90
14749;DHT22;7466;53.574;9.976;2022-10-24T04:00:04;12.70;99.90
14749;DHT22;7466;53.574;9.976;2022-10-24T04:02:31;12.80;99.90
14749;DHT22;7466;53.574;9.976;2022-10-24T04:04:58;12.70;99.90
14749;DHT22;7466;53.574;9.976;2022-10-24T04:07:25;12.70;99.90
14749;DHT22;7466;53.574;9.976;2022-10-24T04:09:51;12.70;99.90
14749;DHT22;7466;53.574;9.976;2022-10-24T04:12:18;12.70;99.90
14749;DHT22;7466;53.574;9.976;2022-10-24T04:14:47;12.70;99.90
14749;DHT22;7466;53.574;9.976;2022-10-24T04:17:14;12.70;99.90
14749;DHT22;7466;53.574;9.976;2022-10-24T04:19:41;12.60;99.90
14749;DHT22;7466;53.574;9.976;2022-10-24T04:22:07;12.60;99.90
14749;DHT22;7466;53.574;9.976;2022-10-24T04:24:34;12.60;99.90
14749;DHT22;7466;53.574;9.976;2022-10-24T04:27:02;12.60;99.90
14749;DHT22;7466;53.574;9.976;2022-10-24T04:29:29;12.50;99.90
14749;DHT22;7466;53.574;9.976;2022-10-24T04:31:57;12.60;99.90
14749;DHT22;7466;53.574;9.976;2022-10-24T04:34:24;12.60;99.90
14749;DHT22;7466;53.574;9.976;2022-10-24T04:36:51;12.60;99.90
14749;DHT22;7466;53.574;9.976;2022-10-24T04:39:18;12.60;99.90
14749;DHT22;7466;53.574;9.976;2022-10-24T04:41:45;12.70;99.90
14749;DHT22;7466;53.574;9.976;2022-10-24T04:44:12;12.70;99.90
14749;DHT22;7466;53.574;9.976;2022-10-24T04:46:38;12.70;99.90
14749;DHT22;7466;53.574;9.976;2022-10-24T04:49:07;12.80;99.90
14749;DHT22;7466;53.574;9.976;2022-10-24T04:51:34;12.80;99.90
14749;DHT22;7466;53.574;9.976;2022-10-24T04:54:01;12.80;99.90
14749;DHT22;7466;53.574;9.976;2022-10-24T04:56:28;12.80;99.90
14749;DHT22;7466;53.574;9.976;2022-10-24T04:58:54;12.90;99.90
14749;DHT22;7466;53.574;9.976;2022-10-24T05:01:21;12.90;99.90
14749;DHT22;7466;53.574;9.976;2022-10-24T05:03:48;12.90;99.90
14749;DHT22;7466;53.574;9.976;2022-10-24T05:06:16;13.00;99.90
14749;DHT22;7466;53.574;9.976;2022-10-24T05:08:43;13.00;99.90
14749;DHT22;7466;53.574;9.976;2022-10-24T05:11:10;13.00;99.90
14749;DHT22;7466;53.574;9.976;2022-10-24T05:13:37;13.00;99.90
14749;DHT22;7466;53.574;9.976;2022-10-24T05:16:04;13.00;99.90
14749;DHT22;7466;53.574;9.976;2022-10-24T05:18:31;13.10;99.90
14749;DHT22;7466;53.574;9.976;2022-10-24T05:20:59;13.10;99.90
14749;DHT22;7466;53.574;9.976;2022-10-24T05:23:27;13.00;99.90
14749;DHT22;7466;53.574;9.976;2022-10-24T05:25:54;13.10;99.90
14749;DHT22;7466;53.574;9.976;2022-10-24T05:28:21;13.20;99.90
14749;DHT22;7466;53.574;9.976;2022-10-24T05:30:48;13.10;99.90
14749;DHT22;7466;53.574;9.976;2022-10-24T05:33:15;13.10;99.90
14749;DHT22;7466;53.574;9.976;2022-10-24T05:35:42;13.10;99.90
14749;DHT22;7466;53.574;9.976;2022-10-24T05:38:09;13.10;99.90
14749;DHT22;7466;53.574;9.976;2022-10-24T05:40:37;13.10;99.90
14749;DHT22;7466;53.574;9.976;2022-10-24T05:43:04;13.10;99.90
14749;DHT22;7466;53.574;9.976;2022-10-24T05:45:31;13.10;99.90
14749;DHT22;7466;53.574;9.976;2022-10-24T05:47:58;13.20;99.90
14749;DHT22;7466;53.574;9.976;2022-10-24T05:50:25;13.20;99.90
14749;DHT22;7466;53.574;9.976;2022-10-24T05:52:52;13.30;99.90
14749;DHT22;7466;53.574;9.976;2022-10-24T05:55:18;13.30;99.90
14749;DHT22;7466;53.574;9.976;2022-10-24T05:57:47;13.40;99.90
14749;DHT22;7466;53.574;9.976;2022-10-24T06:00:15;13.40;99.90
14749;DHT22;7466;53.574;9.976;2022-10-24T06:02:43;13.50;99.90
14749;DHT22;7466;53.574;9.976;2022-10-24T06:05:10;13.50;99.90
14749;DHT22;7466;53.574;9.976;2022-10-24T06:07:38;13.50;99.90
14749;DHT22;7466;53.574;9.976;2022-10-24T06:10:07;13.50;99.90
14749;DHT22;7466;53.574;9.976;2022-10-24T06:12:35;13.50;99.90
14749;DHT22;7466;53.574;9.976;2022-10-24T06:15:05;13.50;99.90
14749;DHT22;7466;53.574;9.976;2022-10-24T06:17:33;13.50;99.90
14749;DHT22;7466;53.574;9.976;2022-10-24T06:20:00;13.60;99.90
14749;DHT22;7466;53.574;9.976;2022-10-24T06:22:27;13.70;99.90
14749;DHT22;7466;53.574;9.976;2022-10-24T06:24:54;13.70;99.90
14749;DHT22;7466;53.574;9.976;2022-10-24T06:27:22;13.70;99.90
14749;DHT22;7466;53.574;9.976;2022-10-24T06:29:49;13.70;99.90
14749;DHT22;7466;53.574;9.976;2022-10-24T06:32:17;13.70;99.90
14749;DHT22;7466;53.574;9.976;2022-10-24T06:34:44;13.70;99.90
14749;DHT22;7466;53.574;9.976;2022-10-24T06:37:11;13.70;99.90
14749;DHT22;7466;53.574;9.976;2022-10-24T06:39:38;13.70;99.90
14749;DHT22;7466;53.574;9.976;2022-10-24T06:42:05;13.80;99.90
14749;DHT22;7466;53.574;9.976;2022-10-24T06:44:31;13.80;99.90
14749;DHT22;7466;53.574;9.976;2022-10-24T06:46:58;13.70;99.90
14749;DHT22;7466;53.574;9.976;2022-10-24T06:49:26;13.70;99.90
14749;DHT22;7466;53.574;9.976;2022-10-24T06:51:53;13.70;99.90
14749;DHT22;7466;53.574;9.976;2022-10-24T06:54:20;13.70;99.90
14749;DHT22;7466;53.574;9.976;2022-10-24T06:56:47;13.70;99.90
14749;DHT22;7466;53.574;9.976;2022-10-24T06:59:16;13.70;99.90
14749;DHT22;7466;53.574;9.976;2022-10-24T07:01:43;13.70;99.90
14749;DHT22;7466;53.574;9.976;2022-10-24T07:04:10;13.70;99.90
14749;DHT22;7466;53.574;9.976;2022-10-24T07:06:38;13.70;99.90
14749;DHT22;7466;53.574;9.976;2022-10-24T07:09:05;13.70;99.90
14749;DHT22;7466;53.574;9.976;2022-10-24T07:11:32;13.80;99.90
14749;DHT22;7466;53.574;9.976;2022-10-24T07:13:59;13.80;99.90
14749;DHT22;7466;53.574;9.976;2022-10-24T07:16:26;13.80;99.90
14749;DHT22;7466;53.574;9.976;2022-10-24T07:18:53;13.90;99.90
14749;DHT22;7466;53.574;9.976;2022-10-24T07:21:22;13.90;99.90
14749;DHT22;7466;53.574;9.976;2022-10-24T07:23:51;14.00;99.90
14749;DHT22;7466;53.574;9.976;2022-10-24T07:26:20;13.90;99.90
14749;DHT22;7466;53.574;9.976;2022-10-24T07:28:48;13.90;99.90
14749;DHT22;7466;53.574;9.976;2022-10-24T07:31:19;14.00;99.90
14749;DHT22;7466;53.574;9.976;2022-10-24T07:33:46;14.00;99.90
14749;DHT22;7466;53.574;9.976;2022-10-24T07:36:15;14.10;99.90
14749;DHT22;7466;53.574;9.976;2022-10-24T07:38:42;14.10;99.90
14749;DHT22;7466;53.574;9.976;2022-10-24T07:41:11;14.10;99.90
14749;DHT22;7466;53.574;9.976;2022-10-24T07:43:38;14.10;99.90
14749;DHT22;7466;53.574;9.976;2022-10-24T07:46:06;14.20;99.90
14749;DHT22;7466;53.574;9.976;2022-10-24T07:48:33;14.20;99.90
14749;DHT22;7466;53.574;9.976;2022-10-24T07:51:04;14.30;99.90
14749;DHT22;7466;53.574;9.976;2022-10-24T07:53:31;14.40;99.90
14749;DHT22;7466;53.574;9.976;2022-10-24T07:55:58;14.50;99.90
14749;DHT22;7466;53.574;9.976;2022-10-24T07:58:27;14.60;99.90
14749;DHT22;7466;53.574;9.976;2022-10-24T08:00:54;14.60;99.90
14749;DHT22;7466;53.574;9.976;2022-10-24T08:03:21;14.70;99.90
14749;DHT22;7466;53.574;9.976;2022-10-24T08:05:48;14.80;99.90
14749;DHT22;7466;53.574;9.976;2022-10-24T08:08:15;14.90;99.90
14749;DHT22;7466;53.574;9.976;2022-10-24T08:10:42;15.10;99.90
14749;DHT22;7466;53.574;9.976;2022-10-24T08:13:09;15.40;99.90
14749;DHT22;7466;53.574;9.976;2022-10-24T08:15:37;15.70;99.90
14749;DHT22;7466;53.574;9.976;2022-10-24T08:18:04;15.90;99.90
14749;DHT22;7466;53.574;9.976;2022-10-24T08:20:31;16.20;99.90
14749;DHT22;7466;53.574;9.976;2022-10-24T08:22:58;16.30;99.90
14749;DHT22;7466;53.574;9.976;2022-10-24T08:25:25;16.50;99.90
14749;DHT22;7466;53.574;9.976;2022-10-24T08:27:52;16.80;99.90
14749;DHT22;7466;53.574;9.976;2022-10-24T08:30:19;16.80;99.90
14749;DHT22;7466;53.574;9.976;2022-10-24T08:32:47;16.80;99.90
14749;DHT22;7466;53.574;9.976;2022-10-24T08:35:15;16.90;99.90
14749;DHT22;7466;53.574;9.976;2022-10-24T08:37:43;16.90;99.90
14749;DHT22;7466;53.574;9.976;2022-10-24T08:40:14;16.90;99.90
14749;DHT22;7466;53.574;9.976;2022-10-24T08:42:41;16.90;99.90
14749;DHT22;7466;53.574;9.976;2022-10-24T08:45:12;16.90;99.90
14749;DHT22;7466;53.574;9.976;2022-10-24T08:47:42;17.00;99.90
14749;DHT22;7466;53.574;9.976;2022-10-24T08:50:20;17.10;99.90
14749;DHT22;7466;53.574;9.976;2022-10-24T08:52:51;17.10;99.90
14749;DHT22;7466;53.574;9.976;2022-10-24T08:55:26;17.20;99.90
14749;DHT22;7466;53.574;9.976;2022-10-24T08:57:56;17.10;99.90
14749;DHT22;7466;53.574;9.976;2022-10-24T09:00:25;17.00;99.90
14749;DHT22;7466;53.574;9.976;2022-10-24T09:02:56;17.00;99.90
14749;DHT22;7466;53.574;9.976;2022-10-24T09:05:31;16.90;99.90
14749;DHT22;7466;53.574;9.976;2022-10-24T09:08:05;16.90;99.90
14749;DHT22;7466;53.574;9.976;2022-10-24T09:10:42;16.80;99.90
14749;DHT22;7466;53.574;9.976;2022-10-24T09:13:13;16.90;99.90
14749;DHT22;7466;53.574;9.976;2022-10-24T09:15:41;17.00;99.90
14749;DHT22;7466;53.574;9.976;2022-10-24T09:18:14;17.10;99.90
14749;DHT22;7466;53.574;9.976;2022-10-24T09:20:45;17.20;99.90
14749;DHT22;7466;53.574;9.976;2022-10-24T09:23:14;17.30;99.90
14749;DHT22;7466;53.574;9.976;2022-10-24T09:25:44;17.30;99.90
14749;DHT22;7466;53.574;9.976;2022-10-24T09:28:14;17.40;99.90
14749;DHT22;7466;53.574;9.976;2022-10-24T09:30:42;17.40;99.90
14749;DHT22;7466;53.574;9.976;2022-10-24T09:33:22;17.50;99.90
14749;DHT22;7466;53.574;9.976;2022-10-24T09:35:53;17.50;99.90
14749;DHT22;7466;53.574;9.976;2022-10-24T09:38:30;17.50;99.90
14749;DHT22;7466;53.574;9.976;2022-10-24T09:41:02;17.50;99.90
14749;DHT22;7466;53.574;9.976;2022-10-24T09:43:37;17.50;99.90
14749;DHT22;7466;53.574;9.976;2022-10-24T09:46:07;17.50;99.90
14749;DHT22;7466;53.574;9.976;2022-10-24T09:48:47;17.50;99.90
14749;DHT22;7466;53.574;9.976;2022-10-24T09:51:24;17.60;1.00
14749;DHT22;7466;53.574;9.976;2022-10-24T09:54:22;17.60;1.00
14749;DHT22;7466;53.574;9.976;2022-10-24T09:57:03;17.70;1.00
14749;DHT22;7466;53.574;9.976;2022-10-24T09:59:36;17.80;1.00
14749;DHT22;7466;53.574;9.976;2022-10-24T10:02:21;17.90;1.00
14749;DHT22;7466;53.574;9.976;2022-10-24T10:05:11;17.90;1.00
14749;DHT22;7466;53.574;9.976;2022-10-24T10:07:43;18.00;1.00
14749;DHT22;7466;53.574;9.976;2022-10-24T10:10:27;17.90;1.00
14749;DHT22;7466;53.574;9.976;2022-10-24T10:13:01;18.00;1.00
14749;DHT22;7466;53.574;9.976;2022-10-24T10:15:30;18.10;1.00
14749;DHT22;7466;53.574;9.976;2022-10-24T10:18:02;18.30;1.00
14749;DHT22;7466;53.574;9.976;2022-10-24T10:20:32;18.30;1.00
14749;DHT22;7466;53.574;9.976;2022-10-24T10:23:23;18.50;1.00
14749;DHT22;7466;53.574;9.976;2022-10-24T10:28:46;18.90;1.00
14749;DHT22;7466;53.574;9.976;2022-10-24T10:31:18;18.90;1.00
14749;DHT22;7466;53.574;9.976;2022-10-24T10:33:58;19.10;1.00
14749;DHT22;7466;53.574;9.976;2022-10-24T10:36:31;19.40;1.00
14749;DHT22;7466;53.574;9.976;2022-10-24T10:39:13;19.80;1.00
14749;DHT22;7466;53.574;9.976;2022-10-24T10:41:47;20.20;1.00
14749;DHT22;7466;53.574;9.976;2022-10-24T10:44:38;20.20;1.00
14749;DHT22;7466;53.574;9.976;2022-10-24T10:47:14;20.00;1.00
14749;DHT22;7466;53.574;9.976;2022-10-24T10:49:47;20.10;1.00
14749;DHT22;7466;53.574;9.976;2022-10-24T10:52:23;19.70;1.00
14749;DHT22;7466;53.574;9.976;2022-10-24T10:55:07;19.70;1.00
14749;DHT22;7466;53.574;9.976;2022-10-24T10:57:44;19.40;1.00
14749;DHT22;7466;53.574;9.976;2022-10-24T11:00:16;19.40;1.00
14749;DHT22;7466;53.574;9.976;2022-10-24T11:03:01;19.40;1.00
14749;DHT22;7466;53.574;9.976;2022-10-24T11:05:46;19.00;1.00
14749;DHT22;7466;53.574;9.976;2022-10-24T11:08:31;18.90;1.00
14749;DHT22;7466;53.574;9.976;2022-10-24T11:11:08;18.80;1.00
14749;DHT22;7466;53.574;9.976;2022-10-24T11:13:41;18.80;1.00
14749;DHT22;7466;53.574;9.976;2022-10-24T11:16:11;18.80;1.00
14749;DHT22;7466;53.574;9.976;2022-10-24T11:18:43;19.10;1.00
14749;DHT22;7466;53.574;9.976;2022-10-24T11:21:12;19.50;1.00
14749;DHT22;7466;53.574;9.976;2022-10-24T11:23:43;19.80;1.00
14749;DHT22;7466;53.574;9.976;2022-10-24T11:26:18;19.90;1.00
14749;DHT22;7466;53.574;9.976;2022-10-24T11:28:53;19.90;1.00
14749;DHT22;7466;53.574;9.976;2022-10-24T11:31:24;19.60;1.00
14749;DHT22;7466;53.574;9.976;2022-10-24T11:33:55;19.40;1.00
14749;DHT22;7466;53.574;9.976;2022-10-24T11:36:29;19.40;1.00
14749;DHT22;7466;53.574;9.976;2022-10-24T11:39:02;19.30;1.00
14749;DHT22;7466;53.574;9.976;2022-10-24T11:41:40;19.30;1.00
14749;DHT22;7466;53.574;9.976;2022-10-24T11:44:19;19.10;1.00
14749;DHT22;7466;53.574;9.976;2022-10-24T11:46:51;19.00;1.00
14749;DHT22;7466;53.574;9.976;2022-10-24T11:49:22;18.80;1.00
14749;DHT22;7466;53.574;9.976;2022-10-24T11:51:53;18.80;1.00
14749;DHT22;7466;53.574;9.976;2022-10-24T11:54:24;18.70;1.00
14749;DHT22;7466;53.574;9.976;2022-10-24T11:56:57;18.70;1.00
14749;DHT22;7466;53.574;9.976;2022-10-24T11:59:24;18.70;1.00
14749;DHT22;7466;53.574;9.976;2022-10-24T12:05:09;18.70;1.00
14749;DHT22;7466;53.574;9.976;2022-10-24T12:07:55;18.70;1.00
14749;DHT22;7466;53.574;9.976;2022-10-24T12:10:36;19.00;1.00
14749;DHT22;7466;53.574;9.976;2022-10-24T12:13:22;19.20;1.00
14749;DHT22;7466;53.574;9.976;2022-10-24T12:16:02;19.20;1.00
14749;DHT22;7466;53.574;9.976;2022-10-24T12:18:33;19.10;1.00
14749;DHT22;7466;53.574;9.976;2022-10-24T12:21:04;19.30;1.00
14749;DHT22;7466;53.574;9.976;2022-10-24T12:23:31;19.20;1.00
14749;DHT22;7466;53.574;9.976;2022-10-24T12:26:03;19.30;1.00
14749;DHT22;7466;53.574;9.976;2022-10-24T12:28:32;19.20;1.00
14749;DHT22;7466;53.574;9.976;2022-10-24T12:31:20;19.00;1.00
14749;DHT22;7466;53.574;9.976;2022-10-24T12:37:03;18.90;1.00
14749;DHT22;7466;53.574;9.976;2022-10-24T12:39:33;18.80;1.00
14749;DHT22;7466;53.574;9.976;2022-10-24T12:42:00;18.60;1.00
14749;DHT22;7466;53.574;9.976;2022-10-24T12:44:39;18.60;1.00
14749;DHT22;7466;53.574;9.976;2022-10-24T12:47:30;18.50;1.00
14749;DHT22;7466;53.574;9.976;2022-10-24T12:50:48;18.40;1.00
14749;DHT22;7466;53.574;9.976;2022-10-24T12:53:00;18.30;1.00
14749;DHT22;7466;53.574;9.976;2022-10-24T12:55:30;18.30;1.00
14749;DHT22;7466;53.574;9.976;2022-10-24T12:57:57;18.30;1.00
14749;DHT22;7466;53.574;9.976;2022-10-24T13:00:29;18.40;1.00
14749;DHT22;7466;53.574;9.976;2022-10-24T13:03:04;18.40;1.00
14749;DHT22;7466;53.574;9.976;2022-10-24T13:05:50;18.50;1.00
14749;DHT22;7466;53.574;9.976;2022-10-24T13:08:32;18.60;1.00
14749;DHT22;7466;53.574;9.976;2022-10-24T13:11:12;18.90;1.00
14749;DHT22;7466;53.574;9.976;2022-10-24T13:16:59;19.60;1.00
14749;DHT22;7466;53.574;9.976;2022-10-24T13:19:29;19.70;1.00
14749;DHT22;7466;53.574;9.976;2022-10-24T13:21:57;20.00;1.00
14749;DHT22;7466;53.574;9.976;2022-10-24T13:24:29;20.10;1.00
14749;DHT22;7466;53.574;9.976;2022-10-24T13:27:28;19.70;1.00
14749;DHT22;7466;53.574;9.976;2022-10-24T13:30:01;19.30;1.00
14749;DHT22;7466;53.574;9.976;2022-10-24T13:32:32;19.00;1.00
14749;DHT22;7466;53.574;9.976;2022-10-24T13:35:01;18.70;1.00
14749;DHT22;7466;53.574;9.976;2022-10-24T13:37:32;18.50;1.00
14749;DHT22;7466;53.574;9.976;2022-10-24T13:40:07;18.40;1.00
14749;DHT22;7466;53.574;9.976;2022-10-24T13:42:36;18.30;1.00
14749;DHT22;7466;53.574;9.976;2022-10-24T13:45:05;18.30;1.00
14749;DHT22;7466;53.574;9.976;2022-10-24T13:47:38;18.50;1.00
14749;DHT22;7466;53.574;9.976;2022-10-24T13:50:12;18.60;1.00
14749;DHT22;7466;53.574;9.976;2022-10-24T13:52:43;18.70;1.00
14749;DHT22;7466;53.574;9.976;2022-10-24T13:55:17;18.90;1.00
14749;DHT22;7466;53.574;9.976;2022-10-24T13:57:51;19.30;1.00
14749;DHT22;7466;53.574;9.976;2022-10-24T14:00:20;19.30;1.00
14749;DHT22;7466;53.574;9.976;2022-10-24T14:02:49;19.30;1.00
14749;DHT22;7466;53.574;9.976;2022-10-24T14:05:19;19.20;1.00
14749;DHT22;7466;53.574;9.976;2022-10-24T14:07:49;19.20;1.00
14749;DHT22;7466;53.574;9.976;2022-10-24T14:10:16;18.90;1.00
14749;DHT22;7466;53.574;9.976;2022-10-24T14:12:44;18.80;1.00
14749;DHT22;7466;53.574;9.976;2022-10-24T14:15:18;18.60;1.00
14749;DHT22;7466;53.574;9.976;2022-10-24T14:17:55;18.60;1.00
14749;DHT22;7466;53.574;9.976;2022-10-24T14:20:24;18.40;1.00
14749;DHT22;7466;53.574;9.976;2022-10-24T14:22:51;18.30;1.00
14749;DHT22;7466;53.574;9.976;2022-10-24T14:25:22;18.30;1.00
14749;DHT22;7466;53.574;9.976;2022-10-24T14:27:50;18.10;1.00
14749;DHT22;7466;53.574;9.976;2022-10-24T14:30:19;18.10;1.00
14749;DHT22;7466;53.574;9.976;2022-10-24T14:32:46;18.10;1.00
14749;DHT22;7466;53.574;9.976;2022-10-24T14:35:15;18.20;1.00
14749;DHT22;7466;53.574;9.976;2022-10-24T14:37:42;18.10;1.00
14749;DHT22;7466;53.574;9.976;2022-10-24T14:40:15;18.20;1.00
14749;DHT22;7466;53.574;9.976;2022-10-24T14:42:43;18.20;1.00
14749;DHT22;7466;53.574;9.976;2022-10-24T14:45:22;18.30;1.00
14749;DHT22;7466;53.574;9.976;2022-10-24T14:47:51;18.40;1.00
14749;DHT22;7466;53.574;9.976;2022-10-24T14:50:38;18.40;1.00
14749;DHT22;7466;53.574;9.976;2022-10-24T14:53:13;18.30;1.00
14749;DHT22;7466;53.574;9.976;2022-10-24T14:55:49;18.10;1.00
14749;DHT22;7466;53.574;9.976;2022-10-24T14:58:21;18.00;1.00
14749;DHT22;7466;53.574;9.976;2022-10-24T15:00:49;17.90;1.00
14749;DHT22;7466;53.574;9.976;2022-10-24T15:03:15;17.80;1.00
14749;DHT22;7466;53.574;9.976;2022-10-24T15:05:52;17.80;1.00
14749;DHT22;7466;53.574;9.976;2022-10-24T15:08:33;17.80;1.00
14749;DHT22;7466;53.574;9.976;2022-10-24T15:11:16;17.70;1.00
14749;DHT22;7466;53.574;9.976;2022-10-24T15:13:48;17.70;1.00
14749;DHT22;7466;53.574;9.976;2022-10-24T15:16:24;17.60;1.00
14749;DHT22;7466;53.574;9.976;2022-10-24T15:18:53;17.60;1.00
14749;DHT22;7466;53.574;9.976;2022-10-24T15:21:24;17.60;1.00
14749;DHT22;7466;53.574;9.976;2022-10-24T15:23:53;17.50;1.00
14749;DHT22;7466;53.574;9.976;2022-10-24T15:26:31;17.50;1.00
14749;DHT22;7466;53.574;9.976;2022-10-24T15:29:06;17.50;1.00
14749;DHT22;7466;53.574;9.976;2022-10-24T15:31:37;17.40;1.00
14749;DHT22;7466;53.574;9.976;2022-10-24T15:34:05;17.30;1.00
14749;DHT22;7466;53.574;9.976;2022-10-24T15:36:38;17.30;1.00
14749;DHT22;7466;53.574;9.976;2022-10-24T15:39:10;17.20;1.00
14749;DHT22;7466;53.574;9.976;2022-10-24T15:41:38;17.10;1.00
14749;DHT22;7466;53.574;9.976;2022-10-24T15:44:13;17.10;1.00
14749;DHT22;7466;53.574;9.976;2022-10-24T15:46:41;17.10;1.00
14749;DHT22;7466;53.574;9.976;2022-10-24T15:49:07;17.00;1.00
14749;DHT22;7466;53.574;9.976;2022-10-24T15:51:36;16.90;1.00
14749;DHT22;7466;53.574;9.976;2022-10-24T15:54:03;16.90;1.00
14749;DHT22;7466;53.574;9.976;2022-10-24T15:56:30;16.80;1.00
14749;DHT22;7466;53.574;9.976;2022-10-24T15:58:57;16.80;1.00
14749;DHT22;7466;53.574;9.976;2022-10-24T16:01:26;16.70;1.00
14749;DHT22;7466;53.574;9.976;2022-10-24T16:03:55;16.70;1.00
14749;DHT22;7466;53.574;9.976;2022-10-24T16:06:22;16.70;1.00
14749;DHT22;7466;53.574;9.976;2022-10-24T16:08:50;16.70;1.00
14749;DHT22;7466;53.574;9.976;2022-10-24T16:11:17;16.70;1.00
14749;DHT22;7466;53.574;9.976;2022-10-24T16:13:44;16.70;1.00
14749;DHT22;7466;53.574;9.976;2022-10-24T16:16:11;16.60;1.00
14749;DHT22;7466;53.574;9.976;2022-10-24T16:18:38;16.60;1.00
14749;DHT22;7466;53.574;9.976;2022-10-24T16:21:06;16.60;1.00
14749;DHT22;7466;53.574;9.976;2022-10-24T16:23:33;16.60;1.00
14749;DHT22;7466;53.574;9.976;2022-10-24T16:26:01;16.50;1.00
14749;DHT22;7466;53.574;9.976;2022-10-24T16:28:28;16.50;1.00
14749;DHT22;7466;53.574;9.976;2022-10-24T16:30:55;16.40;5.90
14749;DHT22;7466;53.574;9.976;2022-10-24T16:33:22;16.50;10.40